METAR AND TAF INFORMATION
METAR FOR LTBJ
ADDS - METARS form results

(1419 UTC 17 July 2019)
Data provider http://aviationweather.gov/metar/data/
 
METAR text: LTBJ 171413Z 05007KT 320V110 8000 -TSRA FEW015CB BKN025 25/19 Q1003 BECMG TL1500 NSW
Conditions at: LTBJ (IZMIR/ADNAN MEND, TR) observed 1413 UTC 17 July 2019
Temperature: 25.0°C (77°F)
Dewpoint: 19.0°C (66°F) [RH = 69%]
Pressure (altimeter): 29.62 inches Hg (1003.0 mb)
Winds: from the NE (50 degrees) at 8 MPH (7 knots; 3.6 m/s)
Visibility: 5 miles ( 8 km)
Ceiling: 2500 feet AGL
Clouds: few clouds at 1500 feet AGL
broken clouds at 2500 feet AGL
Weather: -TSRA  (light rain associated with thunderstorm(s))

METAR text: LTBJ 171401Z 01025KT 9000 2200N -TSRA FEW015CB BKN025 26/19 Q1002 RETS BECMG TL1500 NSW RMK RWY16 01023G33KT
Conditions at: LTBJ (IZMIR/ADNAN MEND, TR) observed 1401 UTC 17 July 2019
Temperature: 26.0°C (79°F)
Dewpoint: 19.0°C (66°F) [RH = 65%]
Pressure (altimeter): 29.59 inches Hg (1002.0 mb)
Winds: from the N (10 degrees) at 29 MPH (25 knots; 12.9 m/s)
Visibility: 6 miles ( 9 km)
Ceiling: 2500 feet AGL
Clouds: few clouds at 1500 feet AGL
broken clouds at 2500 feet AGL
Weather: -TSRA  (light rain associated with thunderstorm(s))

METAR text: LTBJ 171350Z 34017KT 310V010 9999 TS FEW020CB SCT025 30/16 Q1002 TEMPO -TSRA RMK RWY16 34015KT 310V010
Conditions at: LTBJ (IZMIR/ADNAN MEND, TR) observed 1350 UTC 17 July 2019
Temperature: 30.0°C (86°F)
Dewpoint: 16.0°C (61°F) [RH = 43%]
Pressure (altimeter): 29.59 inches Hg (1002.0 mb)
Winds: from the NNW (340 degrees) at 20 MPH (17 knots; 8.7 m/s)
Visibility: 6 or more miles (10+ km)
Ceiling: at least 12,000 feet AGL
Clouds: few clouds at 2000 feet AGL
scattered clouds at 2500 feet AGL
Weather: TS  (thunderstorm)

METAR text: LTBJ 171336Z 34014KT 300V010 9999 TS FEW020CB SCT025 30/15 Q1002 TEMPO -TSRA RMK RWY16 33017KT 310V010
Conditions at: LTBJ (IZMIR/ADNAN MEND, TR) observed 1336 UTC 17 July 2019
Temperature: 30.0°C (86°F)
Dewpoint: 15.0°C (59°F) [RH = 40%]
Pressure (altimeter): 29.59 inches Hg (1002.0 mb)
Winds: from the NNW (340 degrees) at 16 MPH (14 knots; 7.2 m/s)
Visibility: 6 or more miles (10+ km)
Ceiling: at least 12,000 feet AGL
Clouds: few clouds at 2000 feet AGL
scattered clouds at 2500 feet AGL
Weather: TS  (thunderstorm)

METAR text: LTBJ 171320Z 34013KT 310V030 9999 FEW030 SCT200 30/15 Q1002 NOSIG RMK RWY16 33013KT
Conditions at: LTBJ (IZMIR/ADNAN MEND, TR) observed 1320 UTC 17 July 2019
Temperature: 30.0°C (86°F)
Dewpoint: 15.0°C (59°F) [RH = 40%]
Pressure (altimeter): 29.59 inches Hg (1002.0 mb)
Winds: from the NNW (340 degrees) at 15 MPH (13 knots; 6.7 m/s)
Visibility: 6 or more miles (10+ km)
Ceiling: at least 12,000 feet AGL
Clouds: few clouds at 3000 feet AGL
scattered clouds at 20000 feet AGL
Weather: no significant weather observed at this time

Forecast for: LTBJ (IZMIR/ADNAN MEND, TR)
Text: TAF LTBJ 171040Z 1712/1812 36013KT 9999 SCT030 BKN100
Forecast period: 1200 to 2000 UTC 17 July 2019
Forecast type: FROM: standard forecast or significant change
Winds: from the N (360 degrees) at 15 MPH (13 knots; 6.7 m/s)
Visibility: 6 or more miles 10+ km)
Ceiling: 10000 feet AGL
Clouds: scattered clouds at 3000 feet AGL
broken clouds at 10000 feet AGL
Weather: no significant weather forecast for this period
Text: TEMPO 1712/1716 01016G26KT -TSRA FEW015CB BKN025
Forecast period: 1200 to 1600 UTC 17 July 2019
Forecast type: TEMPORARY: The following changes expected for less than half the time period
Winds: from the N (10 degrees) at 18 MPH (16 knots; 8.2 m/s)
gusting to 30 MPH (26 knots; 13.4 m/s)
Visibility: missing
Ceiling: 2500 feet AGL
Clouds: few clouds at 1500 feet AGL
broken clouds at 2500 feet AGL
Weather: -TSRA  (light rain associated with thunderstorm(s))
Text: TEMPO 1716/1719 -SHRA
Forecast period: 1600 to 1900 UTC 17 July 2019
Forecast type: TEMPORARY: The following changes expected for less than half the time period
Visibility: missing
Ceiling: unknown
Clouds: missing
Weather: -SHRA  (light rain showers)
Text: BECMG 1720/1722 CAVOK
Forecast period: 2000 UTC 17 July 2019 to 0500 UTC 18 July 2019
Forecast type: BECOMING: Conditions expected to become as follows by 2200 UTC 17 July 2019
Winds: from the N (360 degrees) at 15 MPH (13 knots; 6.7 m/s)
Visibility: 6 or more miles 10+ km)
Ceiling: unknown
Clouds: missing
Weather: NSW  (no significant weather)
Text: BECMG 1805/1808 SCT030
Forecast period: 0500 to 1200 UTC 18 July 2019
Forecast type: BECOMING: Conditions expected to become as follows by 0800 UTC 18 July 2019
Winds: from the N (360 degrees) at 15 MPH (13 knots; 6.7 m/s)
Visibility: 6 or more miles 10+ km)
Ceiling: at least 12,000 feet AGL
Clouds: scattered clouds at 3000 feet AGL
Weather: NSW  (no significant weather)

 AIRPORT MAP

 RUNWAY INFORMATION
Runway 16L Runway length 10630 ft Runway width 147 ft
Runway elevation 412 ft Runway displaced threshold 0 ft Runway heading 167
Runway 34R Runway length 10630 ft Runway width 147 ft
Runway elevation 364 ft Runway displaced threshold 0 ft Runway heading 347
Runway 16R Runway length 10630 ft Runway width 147 ft
Runway elevation 409 ft Runway displaced threshold 0 ft Runway heading 167
Runway 34L Runway length 10630 ft Runway width 147 ft
Runway elevation 366 ft Runway displaced threshold 0 ft Runway heading 347

 AIRPORT FREQUENCIES
Type APP Name MENDERES A Frequency 119.5 MHZ
Type APP Name MENDERES A Frequency 134.2 MHZ
Type ATIS Name MENDERES A Frequency 129.2 MHZ
Type GND Name MENDERES G Frequency 121.9 MHZ
Type RMP Name MENDERES R Frequency 121.7 MHZ
Type TWR Name MENDERES T Frequency 118.1 MHZ

 AIRPORT NEAR NAVIGATION AIDS
Type NDB Name Menderes Frequency 315 KHZ
Type NDB Name Menderes Frequency 405 KHZ
Type TACAN Name Menderes Frequency 115100 KHZ
Type VOR-DME Name Menderes Frequency 117900 KHZ



>